Kirishima Maru No.7 — JL6513 — position and weather

sailwx.info

Track history (hours):
 
Tides and Currents Weather Stations Pressure Air Temp Water Temp Dewpoint Dewpoint Depression Visibility Wind Speed Wind Dir Waves Ship Positions

Kirishima Maru No.7

Last reported at 2018-Feb-23 18:56 UTC. Time now 2018-Feb-23 20:23 UTC.
Position N 33°21' E 131°41'.

Length 104 m; draft 6.3 m.

Type: Tanker. MMSI: 431500526.

Date/timePositionNaut miles runAvg speedWind from/ knotsBaromVisibWave heightAir tempDewpointWater temp
2018-Feb-23 18:56N 33°21' E 131°41'510.9
2018-Feb-23 18:28N 33°25' E 131°45'511.7
2018-Feb-23 18:00N 33°28' E 131°51'611.5
2018-Feb-23 17:31N 33°31' E 131°57'711.4
2018-Feb-23 16:56N 33°34' E 132°03'1311.4
2018-Feb-23 15:46N 33°41' E 132°17'311.0
2018-Feb-23 15:29N 33°43' E 132°20'611.2
2018-Feb-23 14:59N 33°46' E 132°25'511.5
2018-Feb-23 14:30N 33°49' E 132°31'611.6
2018-Feb-23 14:00N 33°53' E 132°36'611.9
2018-Feb-23 13:30N 33°57' E 132°42'10 0.2
2018-Feb-21 12:32N 34°05' E 132°48'212.8
2018-Feb-21 12:22N 34°03' E 132°46'512.6
2018-Feb-21 12:00N 33°59' E 132°44'611.9
2018-Feb-21 11:30N 33°55' E 132°39'612.1
2018-Feb-21 10:58N 33°50' E 132°33'612.1
2018-Feb-21 10:30N 33°47' E 132°28'712.4
2018-Feb-21 09:58N 33°43' E 132°22'612.4
2018-Feb-21 09:28N 33°39' E 132°16'1512.2
2018-Feb-21 08:15N 33°30' E 132°02'312.0
2018-Feb-21 08:00N 33°28' E 131°59'611.8
2018-Feb-21 07:30N 33°25' E 131°53'712.3
2018-Feb-21 06:57N 33°21' E 131°47'612.5
2018-Feb-21 06:30N 33°17' E 131°41'1 1.5
2018-Feb-21 05:57N 33°17' E 131°41'0 0.0
2018-Feb-21 05:27N 33°17' E 131°41'0 0.0
2018-Feb-21 04:45N 33°17' E 131°41'0 0.0
2018-Feb-20 22:20N 33°17' E 131°41'0 0.6
2018-Feb-20 22:00N 33°17' E 131°41'4 8.3
2018-Feb-20 21:30N 33°19' E 131°44'611.9
2018-Feb-20 20:59N 33°23' E 131°50'612.3
2018-Feb-20 20:30N 33°26' E 131°56'612.4
2018-Feb-20 20:00N 33°30' E 132°02'612.8
2018-Feb-20 19:30N 33°34' E 132°08'912.7
2018-Feb-20 18:49N 33°39' E 132°16'412.7
2018-Feb-20 18:28N 33°42' E 132°21'612.6
2018-Feb-20 18:00N 33°46' E 132°26'612.4
2018-Feb-20 17:30N 33°50' E 132°32'611.9
2018-Feb-20 17:00N 33°54' E 132°37'611.0
2018-Feb-20 16:30N 33°57' E 132°42'9 0.3
2018-Feb-19 11:01N 34°06' E 132°42'014.2
2018-Feb-19 11:00N 34°06' E 132°42'612.8
2018-Feb-19 10:30N 34°03' E 132°35'710.6
2018-Feb-19 09:51N 34°03' E 132°27'512.7
2018-Feb-19 09:30N 34°06' E 132°23'612.9
2018-Feb-19 09:00N 34°10' E 132°17'3 4.4
2018-Feb-19 08:23N 34°12' E 132°15'0 0.0
2018-Feb-19 07:56N 34°12' E 132°15'0 0.0
2018-Feb-19 07:29N 34°12' E 132°15'0 0.0
2018-Feb-19 06:59N 34°12' E 132°15'0 0.0
2018-Feb-19 06:29N 34°12' E 132°15'0 0.0
2018-Feb-19 05:59N 34°12' E 132°15'0 0.0
2018-Feb-19 05:29N 34°12' E 132°15'0 0.0
2018-Feb-19 04:59N 34°12' E 132°15'0 0.0
2018-Feb-19 04:29N 34°12' E 132°15'0 0.0
2018-Feb-19 03:59N 34°12' E 132°15'0 0.0
2018-Feb-19 03:29N 34°12' E 132°15'0 0.0
2018-Feb-19 02:59N 34°12' E 132°15'0 0.0
2018-Feb-19 02:29N 34°12' E 132°15'0 0.3
2018-Feb-19 02:01N 34°12' E 132°15'0 1.0
2018-Feb-19 01:31N 34°12' E 132°15'2 3.9
2018-Feb-19 01:01N 34°10' E 132°17'611.5
2018-Feb-19 00:30N 34°06' E 132°22'811.7
2018-Feb-18 23:46N 34°02' E 132°31'311.5
2018-Feb-18 23:30N 34°03' E 132°34'611.6
2018-Feb-18 23:00N 34°05' E 132°40'1512.1
2018-Feb-18 21:45N 34°09' E 132°58'6010.6
2018-Feb-18 16:02N 34°26' E 134°08'011.1
2018-Feb-18 15:59N 34°26' E 134°09'611.4
2018-Feb-18 15:25N 34°24' E 134°17'511.9
2018-Feb-18 15:00N 34°25' E 134°22'612.1
2018-Feb-18 14:30N 34°27' E 134°29'612.2
2018-Feb-18 14:00N 34°30' E 134°36'612.4
2018-Feb-18 13:30N 34°32' E 134°43'713.3
2018-Feb-18 13:01N 34°34' E 134°50'714.3
2018-Feb-18 12:30N 34°37' E 134°58'613.0
2018-Feb-18 12:01N 34°36' E 135°06'612.0
2018-Feb-18 11:31N 34°35' E 135°13'611.8
2018-Feb-18 11:00N 34°33' E 135°20'4 8.0
2018-Feb-18 10:30N 34°32' E 135°25'0 0.0
2018-Feb-18 09:57N 34°32' E 135°25'0 0.0
2018-Feb-18 09:30N 34°32' E 135°25'0 0.0
2018-Feb-18 09:00N 34°32' E 135°25'0 0.0
2018-Feb-18 08:30N 34°32' E 135°25'0 0.0
2018-Feb-18 08:00N 34°32' E 135°25'0 0.0
2018-Feb-18 07:30N 34°32' E 135°25'0 0.0
2018-Feb-18 07:00N 34°32' E 135°25'0 0.0
2018-Feb-18 06:30N 34°32' E 135°25'0 0.0
2018-Feb-18 06:00N 34°32' E 135°25'0 0.0
2018-Feb-18 05:30N 34°32' E 135°25'0 0.0
2018-Feb-18 04:57N 34°32' E 135°25'0 0.0
2018-Feb-18 04:30N 34°32' E 135°25'0 0.0
2018-Feb-18 04:00N 34°32' E 135°25'0 0.0
2018-Feb-18 03:30N 34°32' E 135°25'0 0.0
2018-Feb-18 03:00N 34°32' E 135°25'0 0.0
2018-Feb-18 02:30N 34°32' E 135°25'0 0.0
2018-Feb-18 01:57N 34°32' E 135°25'0 0.0
2018-Feb-18 01:30N 34°32' E 135°25'0 0.0
2018-Feb-18 01:00N 34°32' E 135°25'0 0.0
2018-Feb-18 00:30N 34°32' E 135°25'0 0.0
2018-Feb-18 00:00N 34°32' E 135°25'0 0.0
2018-Feb-17 23:30N 34°32' E 135°25'1 1.1
2018-Feb-17 23:00N 34°32' E 135°24'611.8
2018-Feb-17 22:31N 34°33' E 135°17'713.2
2018-Feb-17 22:00N 34°34' E 135°09'713.2
2018-Feb-17 21:30N 34°37' E 135°02'612.3
2018-Feb-17 21:00N 34°35' E 134°54'713.7
2018-Feb-17 20:30N 34°33' E 134°47'713.1
2018-Feb-17 20:00N 34°30' E 134°39'713.2
2018-Feb-17 19:30N 34°28' E 134°32'713.1
2018-Feb-17 19:00N 34°25' E 134°25'713.4
2018-Feb-17 18:29N 34°24' E 134°16'814.7
2018-Feb-17 17:57N 34°26' E 134°07'7213.1
2018-Feb-17 12:28N 34°01' E 132°46'614.0
2018-Feb-17 12:00N 33°56' E 132°41'713.6
2018-Feb-17 11:27N 33°51' E 132°34'612.7
2018-Feb-17 10:57N 33°47' E 132°28'713.1
2018-Feb-17 10:27N 33°43' E 132°22'2313.1
2018-Feb-17 08:41N 33°29' E 131°60'513.1
2018-Feb-17 08:17N 33°26' E 131°55'412.8
2018-Feb-17 07:59N 33°24' E 131°51'612.6
2018-Feb-17 07:30N 33°21' E 131°45'5 9.1
2018-Feb-17 07:00N 33°18' E 131°40'2 2.8
2018-Feb-17 06:28N 33°17' E 131°41'0 0.0
2018-Feb-17 05:58N 33°17' E 131°41'0 0.0
2018-Feb-17 05:28N 33°17' E 131°41'0 0.0
2018-Feb-17 04:52N 33°17' E 131°41'0 0.0
2018-Feb-17 02:52N 33°17' E 131°41'0 0.0
2018-Feb-17 02:28N 33°17' E 131°41'0 0.0
2018-Feb-16 23:46N 33°17' E 131°41'0 0.0
2018-Feb-16 23:22N 33°17' E 131°41'0 0.3
2018-Feb-16 23:00N 33°17' E 131°41'2 3.6
2018-Feb-16 22:30N 33°18' E 131°42'4 7.5
2018-Feb-16 22:00N 33°21' E 131°45'2 3.6
2018-Feb-16 21:28N 33°22' E 131°47'0 0.3
2018-Feb-16 21:00N 33°22' E 131°47'1 2.5
2018-Feb-16 20:30N 33°23' E 131°48'510.7
2018-Feb-16 20:00N 33°27' E 131°52'611.2
2018-Feb-16 19:30N 33°31' E 131°57'612.1
2018-Feb-16 19:00N 33°34' E 132°03'1212.1
2018-Feb-16 17:59N 33°40' E 132°16'612.8
2018-Feb-16 17:30N 33°43' E 132°22'912.8
2018-Feb-16 16:48N 33°48' E 132°31'512.5
2018-Feb-16 16:25N 33°52' E 132°35'512.6
2018-Feb-16 16:00N 33°56' E 132°39'612.0
2018-Feb-16 15:30N 34°00' E 132°44'74 2.2
2018-Feb-15 05:24N 34°26' E 134°09'511.4
2018-Feb-15 04:59N 34°24' E 134°14'612.2
2018-Feb-15 04:30N 34°24' E 134°21'612.7
2018-Feb-15 04:00N 34°21' E 134°28'613.0
2018-Feb-15 03:30N 34°18' E 134°34'510.7
2018-Feb-15 03:00N 34°14' E 134°39'612.4
2018-Feb-15 02:30N 34°09' E 134°44'612.5
2018-Feb-15 02:00N 34°04' E 134°48'612.9
2018-Feb-15 01:31N 33°59' E 134°53'713.0
2018-Feb-15 01:00N 33°54' E 134°57'713.0
2018-Feb-15 00:30N 33°49' E 135°02'612.9
2018-Feb-15 00:00N 33°44' E 135°08'7710.3
2018-Feb-14 16:34N 34°00' E 136°38'211.7
2018-Feb-14 16:23N 34°02' E 136°39'511.2
2018-Feb-14 15:58N 34°04' E 136°44'2611.0
2018-Feb-14 13:38N 34°26' E 137°01'213.8
2018-Feb-14 13:28N 34°28' E 137°02'712.9
2018-Feb-14 12:57N 34°34' E 136°59'613.7
2018-Feb-14 12:30N 34°38' E 136°53'712.9
2018-Feb-14 11:57N 34°44' E 136°48'613.2
2018-Feb-14 11:30N 34°49' E 136°46'713.2
2018-Feb-14 11:00N 34°56' E 136°46'713.2
2018-Feb-14 10:30N 35°01' E 136°50'3 5.4
2018-Feb-14 09:58N 35°04' E 136°52'0 0.0
2018-Feb-14 09:28N 35°04' E 136°52'0 0.0
2018-Feb-14 08:58N 35°04' E 136°52'0 0.0
2018-Feb-14 08:28N 35°04' E 136°52'0 0.0
2018-Feb-14 07:58N 35°04' E 136°52'0 0.0
2018-Feb-14 07:28N 35°04' E 136°52'0 0.0
2018-Feb-14 06:58N 35°04' E 136°52'0 0.0
2018-Feb-14 06:28N 35°04' E 136°52'0 0.5
2018-Feb-14 05:56N 35°04' E 136°52'410.6
2018-Feb-14 05:31N 34°60' E 136°49'4 7.0
2018-Feb-14 04:59N 34°58' E 136°46'0 0.0
2018-Feb-14 04:29N 34°58' E 136°46'0 0.0
2018-Feb-14 03:59N 34°58' E 136°46'0 0.0
2018-Feb-14 03:29N 34°58' E 136°46'0 0.0
2018-Feb-14 02:56N 34°58' E 136°46'0 0.0
2018-Feb-14 02:29N 34°58' E 136°46'0 0.0
2018-Feb-14 01:59N 34°58' E 136°46'0 0.0
2018-Feb-14 01:29N 34°58' E 136°46'0 0.1
2018-Feb-14 00:59N 34°58' E 136°46'0 0.1
2018-Feb-14 00:29N 34°58' E 136°46'0 0.1
2018-Feb-13 23:59N 34°58' E 136°46'0 0.0
2018-Feb-13 23:29N 34°58' E 136°46'0 0.1
2018-Feb-13 22:59N 34°58' E 136°46'0 0.0
2018-Feb-13 22:29N 34°58' E 136°46'0 0.0
2018-Feb-13 21:59N 34°58' E 136°46'0 0.0
2018-Feb-13 21:29N 34°58' E 136°46'0 0.0
2018-Feb-13 20:59N 34°58' E 136°46'0 0.0
2018-Feb-13 20:30N 34°58' E 136°46'1 2.4
2018-Feb-13 20:00N 34°57' E 136°46'510.5
2018-Feb-13 19:30N 34°51' E 136°46'611.6
2018-Feb-13 19:01N 34°46' E 136°48'  
Track history (hours):
 
Tides and Currents Weather Stations Pressure Air Temp Water Temp Dewpoint Dewpoint Depression Visibility Wind Speed Wind Dir Waves Ship Positions

Kirishima Maru No.7

Last reported at 2018-Feb-23 18:56 UTC. Time now 2018-Feb-23 20:23 UTC.
Position N 33°21' E 131°41'.

Length 104 m; draft 6.3 m.

Type: Tanker. MMSI: 431500526.

Date/timePositionNaut miles runAvg speedWind from/ knotsBaromVisibWave heightAir tempDewpointWater temp
2018-Feb-23 18:56N 33°21' E 131°41'510.9
2018-Feb-23 18:28N 33°25' E 131°45'511.7
2018-Feb-23 18:00N 33°28' E 131°51'611.5
2018-Feb-23 17:31N 33°31' E 131°57'711.4
2018-Feb-23 16:56N 33°34' E 132°03'1311.4
2018-Feb-23 15:46N 33°41' E 132°17'311.0
2018-Feb-23 15:29N 33°43' E 132°20'611.2
2018-Feb-23 14:59N 33°46' E 132°25'511.5
2018-Feb-23 14:30N 33°49' E 132°31'611.6
2018-Feb-23 14:00N 33°53' E 132°36'611.9
2018-Feb-23 13:30N 33°57' E 132°42'10 0.2
2018-Feb-21 12:32N 34°05' E 132°48'212.8
2018-Feb-21 12:22N 34°03' E 132°46'512.6
2018-Feb-21 12:00N 33°59' E 132°44'611.9
2018-Feb-21 11:30N 33°55' E 132°39'612.1
2018-Feb-21 10:58N 33°50' E 132°33'612.1
2018-Feb-21 10:30N 33°47' E 132°28'712.4
2018-Feb-21 09:58N 33°43' E 132°22'612.4
2018-Feb-21 09:28N 33°39' E 132°16'1512.2
2018-Feb-21 08:15N 33°30' E 132°02'312.0
2018-Feb-21 08:00N 33°28' E 131°59'611.8
2018-Feb-21 07:30N 33°25' E 131°53'712.3
2018-Feb-21 06:57N 33°21' E 131°47'612.5
2018-Feb-21 06:30N 33°17' E 131°41'1 1.5
2018-Feb-21 05:57N 33°17' E 131°41'0 0.0
2018-Feb-21 05:27N 33°17' E 131°41'0 0.0
2018-Feb-21 04:45N 33°17' E 131°41'0 0.0
2018-Feb-20 22:20N 33°17' E 131°41'0 0.6
2018-Feb-20 22:00N 33°17' E 131°41'4 8.3
2018-Feb-20 21:30N 33°19' E 131°44'611.9
2018-Feb-20 20:59N 33°23' E 131°50'612.3
2018-Feb-20 20:30N 33°26' E 131°56'612.4
2018-Feb-20 20:00N 33°30' E 132°02'612.8
2018-Feb-20 19:30N 33°34' E 132°08'912.7
2018-Feb-20 18:49N 33°39' E 132°16'412.7
2018-Feb-20 18:28N 33°42' E 132°21'612.6
2018-Feb-20 18:00N 33°46' E 132°26'612.4
2018-Feb-20 17:30N 33°50' E 132°32'611.9
2018-Feb-20 17:00N 33°54' E 132°37'611.0
2018-Feb-20 16:30N 33°57' E 132°42'9 0.3
2018-Feb-19 11:01N 34°06' E 132°42'014.2
2018-Feb-19 11:00N 34°06' E 132°42'612.8
2018-Feb-19 10:30N 34°03' E 132°35'710.6
2018-Feb-19 09:51N 34°03' E 132°27'512.7
2018-Feb-19 09:30N 34°06' E 132°23'612.9
2018-Feb-19 09:00N 34°10' E 132°17'3 4.4
2018-Feb-19 08:23N 34°12' E 132°15'0 0.0
2018-Feb-19 07:56N 34°12' E 132°15'0 0.0
2018-Feb-19 07:29N 34°12' E 132°15'0 0.0
2018-Feb-19 06:59N 34°12' E 132°15'0 0.0
2018-Feb-19 06:29N 34°12' E 132°15'0 0.0
2018-Feb-19 05:59N 34°12' E 132°15'0 0.0
2018-Feb-19 05:29N 34°12' E 132°15'0 0.0
2018-Feb-19 04:59N 34°12' E 132°15'0 0.0
2018-Feb-19 04:29N 34°12' E 132°15'0 0.0
2018-Feb-19 03:59N 34°12' E 132°15'0 0.0
2018-Feb-19 03:29N 34°12' E 132°15'0 0.0
2018-Feb-19 02:59N 34°12' E 132°15'0 0.0
2018-Feb-19 02:29N 34°12' E 132°15'0 0.3
2018-Feb-19 02:01N 34°12' E 132°15'0 1.0
2018-Feb-19 01:31N 34°12' E 132°15'2 3.9
2018-Feb-19 01:01N 34°10' E 132°17'611.5
2018-Feb-19 00:30N 34°06' E 132°22'811.7
2018-Feb-18 23:46N 34°02' E 132°31'311.5
2018-Feb-18 23:30N 34°03' E 132°34'611.6
2018-Feb-18 23:00N 34°05' E 132°40'1512.1
2018-Feb-18 21:45N 34°09' E 132°58'6010.6
2018-Feb-18 16:02N 34°26' E 134°08'011.1
2018-Feb-18 15:59N 34°26' E 134°09'611.4
2018-Feb-18 15:25N 34°24' E 134°17'511.9
2018-Feb-18 15:00N 34°25' E 134°22'612.1
2018-Feb-18 14:30N 34°27' E 134°29'612.2
2018-Feb-18 14:00N 34°30' E 134°36'612.4
2018-Feb-18 13:30N 34°32' E 134°43'713.3
2018-Feb-18 13:01N 34°34' E 134°50'714.3
2018-Feb-18 12:30N 34°37' E 134°58'613.0
2018-Feb-18 12:01N 34°36' E 135°06'612.0
2018-Feb-18 11:31N 34°35' E 135°13'611.8
2018-Feb-18 11:00N 34°33' E 135°20'4 8.0
2018-Feb-18 10:30N 34°32' E 135°25'0 0.0
2018-Feb-18 09:57N 34°32' E 135°25'0 0.0
2018-Feb-18 09:30N 34°32' E 135°25'0 0.0
2018-Feb-18 09:00N 34°32' E 135°25'0 0.0
2018-Feb-18 08:30N 34°32' E 135°25'0 0.0
2018-Feb-18 08:00N 34°32' E 135°25'0 0.0
2018-Feb-18 07:30N 34°32' E 135°25'0 0.0
2018-Feb-18 07:00N 34°32' E 135°25'0 0.0
2018-Feb-18 06:30N 34°32' E 135°25'0 0.0
2018-Feb-18 06:00N 34°32' E 135°25'0 0.0
2018-Feb-18 05:30N 34°32' E 135°25'0 0.0
2018-Feb-18 04:57N 34°32' E 135°25'0 0.0
2018-Feb-18 04:30N 34°32' E 135°25'0 0.0
2018-Feb-18 04:00N 34°32' E 135°25'0 0.0
2018-Feb-18 03:30N 34°32' E 135°25'0 0.0
2018-Feb-18 03:00N 34°32' E 135°25'0 0.0
2018-Feb-18 02:30N 34°32' E 135°25'0 0.0
2018-Feb-18 01:57N 34°32' E 135°25'0 0.0
2018-Feb-18 01:30N 34°32' E 135°25'0 0.0
2018-Feb-18 01:00N 34°32' E 135°25'0 0.0
2018-Feb-18 00:30N 34°32' E 135°25'0 0.0
2018-Feb-18 00:00N 34°32' E 135°25'0 0.0
2018-Feb-17 23:30N 34°32' E 135°25'1 1.1
2018-Feb-17 23:00N 34°32' E 135°24'611.8
2018-Feb-17 22:31N 34°33' E 135°17'713.2
2018-Feb-17 22:00N 34°34' E 135°09'713.2
2018-Feb-17 21:30N 34°37' E 135°02'612.3
2018-Feb-17 21:00N 34°35' E 134°54'713.7
2018-Feb-17 20:30N 34°33' E 134°47'713.1
2018-Feb-17 20:00N 34°30' E 134°39'713.2
2018-Feb-17 19:30N 34°28' E 134°32'713.1
2018-Feb-17 19:00N 34°25' E 134°25'713.4
2018-Feb-17 18:29N 34°24' E 134°16'814.7
2018-Feb-17 17:57N 34°26' E 134°07'7213.1
2018-Feb-17 12:28N 34°01' E 132°46'614.0
2018-Feb-17 12:00N 33°56' E 132°41'713.6
2018-Feb-17 11:27N 33°51' E 132°34'612.7
2018-Feb-17 10:57N 33°47' E 132°28'713.1
2018-Feb-17 10:27N 33°43' E 132°22'2313.1
2018-Feb-17 08:41N 33°29' E 131°60'513.1
2018-Feb-17 08:17N 33°26' E 131°55'412.8
2018-Feb-17 07:59N 33°24' E 131°51'612.6
2018-Feb-17 07:30N 33°21' E 131°45'5 9.1
2018-Feb-17 07:00N 33°18' E 131°40'2 2.8
2018-Feb-17 06:28N 33°17' E 131°41'0 0.0
2018-Feb-17 05:58N 33°17' E 131°41'0 0.0
2018-Feb-17 05:28N 33°17' E 131°41'0 0.0
2018-Feb-17 04:52N 33°17' E 131°41'0 0.0
2018-Feb-17 02:52N 33°17' E 131°41'0 0.0
2018-Feb-17 02:28N 33°17' E 131°41'0 0.0
2018-Feb-16 23:46N 33°17' E 131°41'0 0.0
2018-Feb-16 23:22N 33°17' E 131°41'0 0.3
2018-Feb-16 23:00N 33°17' E 131°41'2 3.6
2018-Feb-16 22:30N 33°18' E 131°42'4 7.5
2018-Feb-16 22:00N 33°21' E 131°45'2 3.6
2018-Feb-16 21:28N 33°22' E 131°47'0 0.3
2018-Feb-16 21:00N 33°22' E 131°47'1 2.5
2018-Feb-16 20:30N 33°23' E 131°48'510.7
2018-Feb-16 20:00N 33°27' E 131°52'611.2
2018-Feb-16 19:30N 33°31' E 131°57'612.1
2018-Feb-16 19:00N 33°34' E 132°03'1212.1
2018-Feb-16 17:59N 33°40' E 132°16'612.8
2018-Feb-16 17:30N 33°43' E 132°22'912.8
2018-Feb-16 16:48N 33°48' E 132°31'512.5
2018-Feb-16 16:25N 33°52' E 132°35'512.6
2018-Feb-16 16:00N 33°56' E 132°39'612.0
2018-Feb-16 15:30N 34°00' E 132°44'74 2.2
2018-Feb-15 05:24N 34°26' E 134°09'511.4
2018-Feb-15 04:59N 34°24' E 134°14'612.2
2018-Feb-15 04:30N 34°24' E 134°21'612.7
2018-Feb-15 04:00N 34°21' E 134°28'613.0
2018-Feb-15 03:30N 34°18' E 134°34'510.7
2018-Feb-15 03:00N 34°14' E 134°39'612.4
2018-Feb-15 02:30N 34°09' E 134°44'612.5
2018-Feb-15 02:00N 34°04' E 134°48'612.9
2018-Feb-15 01:31N 33°59' E 134°53'713.0
2018-Feb-15 01:00N 33°54' E 134°57'713.0
2018-Feb-15 00:30N 33°49' E 135°02'612.9
2018-Feb-15 00:00N 33°44' E 135°08'7710.3
2018-Feb-14 16:34N 34°00' E 136°38'211.7
2018-Feb-14 16:23N 34°02' E 136°39'511.2
2018-Feb-14 15:58N 34°04' E 136°44'2611.0
2018-Feb-14 13:38N 34°26' E 137°01'213.8
2018-Feb-14 13:28N 34°28' E 137°02'712.9
2018-Feb-14 12:57N 34°34' E 136°59'613.7
2018-Feb-14 12:30N 34°38' E 136°53'712.9
2018-Feb-14 11:57N 34°44' E 136°48'613.2
2018-Feb-14 11:30N 34°49' E 136°46'713.2
2018-Feb-14 11:00N 34°56' E 136°46'713.2
2018-Feb-14 10:30N 35°01' E 136°50'3 5.4
2018-Feb-14 09:58N 35°04' E 136°52'0 0.0
2018-Feb-14 09:28N 35°04' E 136°52'0 0.0
2018-Feb-14 08:58N 35°04' E 136°52'0 0.0
2018-Feb-14 08:28N 35°04' E 136°52'0 0.0
2018-Feb-14 07:58N 35°04' E 136°52'0 0.0
2018-Feb-14 07:28N 35°04' E 136°52'0 0.0
2018-Feb-14 06:58N 35°04' E 136°52'0 0.0
2018-Feb-14 06:28N 35°04' E 136°52'0 0.5
2018-Feb-14 05:56N 35°04' E 136°52'410.6
2018-Feb-14 05:31N 34°60' E 136°49'4 7.0
2018-Feb-14 04:59N 34°58' E 136°46'0 0.0
2018-Feb-14 04:29N 34°58' E 136°46'0 0.0
2018-Feb-14 03:59N 34°58' E 136°46'0 0.0
2018-Feb-14 03:29N 34°58' E 136°46'0 0.0
2018-Feb-14 02:56N 34°58' E 136°46'0 0.0
2018-Feb-14 02:29N 34°58' E 136°46'0 0.0
2018-Feb-14 01:59N 34°58' E 136°46'0 0.0
2018-Feb-14 01:29N 34°58' E 136°46'0 0.1
2018-Feb-14 00:59N 34°58' E 136°46'0 0.1
2018-Feb-14 00:29N 34°58' E 136°46'0 0.1
2018-Feb-13 23:59N 34°58' E 136°46'0 0.0
2018-Feb-13 23:29N 34°58' E 136°46'0 0.1
2018-Feb-13 22:59N 34°58' E 136°46'0 0.0
2018-Feb-13 22:29N 34°58' E 136°46'0 0.0
2018-Feb-13 21:59N 34°58' E 136°46'0 0.0
2018-Feb-13 21:29N 34°58' E 136°46'0 0.0
2018-Feb-13 20:59N 34°58' E 136°46'0 0.0
2018-Feb-13 20:30N 34°58' E 136°46'1 2.4
2018-Feb-13 20:00N 34°57' E 136°46'510.5
2018-Feb-13 19:30N 34°51' E 136°46'611.6
2018-Feb-13 19:01N 34°46' E 136°48'  

Dump ship's entire track history